x

West Moresby (46208) Wave Buoy

3:00pm - Mon 21st Aug 2017 All times are PDT. -7 hours from GMT.

  • Sig Wave height 6.9ft
  • Peak Period 7s
  • Wind
    18mph, 20mph gusts
  • Sea Temp 59°f
  • Air Temp 59°f
  • Sea Pressure 1015.9mb
  • West Moresby
  • West Moresby

More Historic Weather Station data

Upgrade to MSW Pro to gain access to the past 30 days of data for over 8000 Wavebouys and Weather Stations around the globe.

Join

Comparision Forecast

View Surf forecast
   
Mon 08/21 3:00pm 7ft 7s 18 20 mph 1015.9mb 59f 59f
2:00pm 7ft 8s 18 20 mph 1016.1mb 59f 59f
1:00pm 7ft 8s 16 18 mph 1016.1mb 59f 59f
12:00pm 6.5ft 8s 16 20 mph 1016mb 59f 59f
11:00am 6.5ft 8s 16 18 mph 1015.8mb 58f 59f
10:00am 6.5ft 7s 13 18 mph 1015.9mb 58f 59f
9:00am 6ft 6s 11 13 mph 1016mb 58f 59f
8:00am 6ft 8s 11 13 mph 1015.9mb 58f 59f
7:00am 6.5ft 8s 13 18 mph 1015.5mb 58f 58f
6:00am 6ft 8s 18 25 mph 1014.9mb 58f 58f
5:00am 6ft 9s 16 18 mph 1014.5mb 58f 59f
4:00am 6ft 9s 13 18 mph 1014.4mb 58f 59f
3:00am 6ft 8s 13 18 mph 1014.5mb 58f 59f
2:00am 6ft 16s 18 20 mph 1014.7mb 58f 59f
1:00am 6ft 16s 16 18 mph 1014.7mb 58f 59f
12:00am 5.5ft 16s 13 16 mph 1014.8mb 58f 59f
Sun 08/20 11:00pm 5.5ft 9s 13 16 mph 1014.9mb 58f 59f
10:00pm 5ft 16s 13 16 mph 1015mb 58f 59f
9:00pm 5.5ft 8s 16 18 mph 1014.9mb 58f 59f
8:00pm 5.5ft 7s 13 18 mph 1015.1mb 58f 59f
7:00pm 6ft 7s 16 18 mph 1015.3mb 58f 59f
6:00pm 6ft 8s 16 18 mph 1015.5mb 58f 59f
5:00pm 6.5ft 8s 13 16 mph 1016mb 58f 58f
4:00pm 6ft 8s 9 11 mph 1016.2mb 58f 59f
3:00pm 6.5ft 9s 9 11 mph 1016.3mb 58f 59f
2:00pm 7ft 10s 9 11 mph 1016.3mb 58f 59f
1:00pm 6.5ft 10s 9 11 mph 1016.2mb 58f 59f
12:00pm 6.5ft 10s 9 11 mph 1015.8mb 58f 59f
11:00am 6.5ft 8s 9 9 mph 1015.5mb 58f 59f
10:00am 6.5ft 10s 11 13 mph 1015.3mb 58f 59f
9:00am 6.5ft 10s 16 18 mph 1015.2mb 58f 58f
8:00am 6ft 10s 13 16 mph 1015.1mb 58f 58f
7:00am 6.5ft 9s 11 13 mph 1014.9mb 58f 58f
6:00am 6ft 9s 11 13 mph 1014.6mb 58f 58f
5:00am 6ft 8s 13 18 mph 1014.3mb 58f 58f
4:00am 6.5ft 11s 13 18 mph 1014.2mb 58f 58f
3:00am 6.5ft 10s 13 18 mph 1014.5mb 58f 59f
2:00am 6ft 10s 13 16 mph 1014.5mb 58f 59f
1:00am 6ft 9s 13 16 mph 1014.9mb 58f 58f
12:00am 6ft 10s 11 13 mph 1015.3mb 58f 58f
Sat 08/19 11:00pm 6ft 10s 11 13 mph 1015.9mb 58f 58f
10:00pm 6.5ft 10s 9 11 mph 1016.4mb 58f 58f
9:00pm 6ft 10s 18 22 mph 1016.8mb 58f 57f
8:00pm 6ft 10s 18 27 mph 1017.6mb 58f 57f
7:00pm 6ft 10s 18 20 mph 1018.2mb 58f 57f
6:00pm 6ft 9s 18 20 mph 1018.9mb 58f 56f
5:00pm 6.5ft 11s 11 13 mph 1019.8mb 58f 56f
4:00pm 7ft 11s 16 18 mph 1020.3mb 58f 57f
3:00pm 6.5ft 10s 16 18 mph 1020.5mb 58f 57f
2:00pm 7ft 10s 16 20 mph 1020.7mb 58f 58f
1:00pm 7ft 10s 11 13 mph 1021.3mb 58f 58f
12:00pm 7ft 9s 13 18 mph 1021.6mb 58f 58f
11:00am 7.5ft 10s 11 13 mph 1021.8mb 58f 58f
10:00am 7ft 10s 16 18 mph 1021.8mb 58f 58f
9:00am 8ft 10s 13 16 mph 1021.9mb 58f 58f
8:00am 7.5ft 9s 13 16 mph 1021.9mb 58f 58f
7:00am 7ft 9s 13 16 mph 1022mb 58f 58f
6:00am 8ft 9s 13 18 mph 1021.9mb 58f 57f
5:00am 7.5ft 10s 13 18 mph 1022mb 58f 57f
4:00am 8.5ft 10s 11 13 mph 1022.2mb 58f 57f
3:00am 8.5ft 9s 13 16 mph 1022.1mb 58f 58f
2:00am 8ft 10s 9 13 mph 1022.1mb 59f 57f
1:00am 8ft 8s 11 13 mph 1022.1mb 58f 58f
12:00am 7.5ft 9s 11 18 mph 1021.8mb 58f 57f
Fri 08/18 11:00pm 8ft 8s 9 11 mph 1021.6mb 58f 58f
10:00pm 8ft 10s 11 13 mph 1021.4mb 59f 58f
9:00pm 7.5ft 9s 13 13 mph 1021mb 59f 58f
8:00pm 8ft 9s 13 18 mph 1020.9mb 59f 58f
7:00pm 8.5ft 8s 13 16 mph 1020.8mb 59f 58f
6:00pm 8.5ft 8s 16 18 mph 1020.6mb 59f 59f
5:00pm 8.5ft 8s 16 18 mph 1020.3mb 59f 59f
4:00pm 8.5ft 8s 16 18 mph 1020.4mb 59f 59f
3:00pm 8.5ft 8s 16 18 mph 1020mb 59f 59f
2:00pm 8.5ft 9s 13 18 mph 1019.5mb 59f 58f
1:00pm 8.5ft 8s 16 20 mph 1019mb 58f 58f
12:00pm 8ft 8s 18 22 mph 1018.6mb 58f 58f
11:00am 8ft 8s 13 18 mph 1018.5mb 58f 57f
10:00am 8.5ft 7s 18 25 mph 1018mb 58f 58f
9:00am 7ft 8s 9 13 mph 1017.8mb 58f 57f
8:00am 7.5ft 8s 18 22 mph 1017.4mb 58f 58f
7:00am 7ft 7s 16 18 mph 1017.3mb 58f 58f
6:00am 8ft 8s 16 18 mph 1016.7mb 58f 57f
5:00am 7.5ft 7s 16 18 mph 1016.7mb 58f 58f
4:00am 8.5ft 8s 18 20 mph 1016.6mb 58f 58f
3:00am 8ft 7s 18 20 mph 1016.3mb 58f 58f
2:00am 8ft 10s 18 22 mph 1016.1mb 59f 58f
1:00am 8.5ft 10s 18 22 mph 1015.7mb 58f 58f
12:00am 8ft 7s 16 20 mph 1015.3mb 58f 58f